Chantaco — FMLM — position and weather

sailwx.info

Track history (hours):
 
Tides and Currents Weather Stations Pressure Air Temp Water Temp Dewpoint Dewpoint Depression Visibility Wind Speed Wind Dir Waves Ship Positions

Chantaco

Last reported at 2015-Jul-31 16:31 UTC. Time now 2015-Jul-31 17:27 UTC.
Position N 49°30' W 000°05'.

Length 143 m; draft 7.6 m.

Type: Tanker. MMSI: 228330700.

Date/timePositionNaut miles runAvg speedWind from/ knotsBaromVisibWave heightAir tempDewpointWater temp
2015-Jul-31 16:31N 49°30' W 000°05'0 0.0
2015-Jul-31 15:31N 49°30' W 000°05'0 0.0
2015-Jul-31 14:31N 49°30' W 000°05'0 0.0
2015-Jul-31 13:31N 49°30' W 000°05'0 0.0
2015-Jul-31 12:31N 49°30' W 000°05'0 0.1
2015-Jul-31 11:31N 49°30' W 000°05'0 0.0
2015-Jul-31 10:31N 49°30' W 000°04'0 0.0
2015-Jul-31 09:31N 49°30' W 000°04'0 0.0
2015-Jul-31 08:31N 49°30' W 000°04'0 0.0
2015-Jul-31 07:31N 49°30' W 000°05'0 0.1
2015-Jul-31 06:31N 49°30' W 000°05'0 0.1
2015-Jul-31 05:31N 49°30' W 000°05'0 0.1
2015-Jul-31 04:31N 49°30' W 000°05'0 0.0
2015-Jul-31 03:31N 49°30' W 000°05'0 0.0
2015-Jul-31 02:31N 49°30' W 000°05'0 0.0
2015-Jul-31 01:31N 49°30' W 000°05'6 6.5
2015-Jul-31 00:33N 49°36' W 000°05'1212.2
2015-Jul-30 23:33N 49°47' E 000°01'5310.6
2015-Jul-30 18:31N 50°35' E 000°39'1212.3
2015-Jul-30 17:33N 50°42' E 000°53'1313.4
2015-Jul-30 16:33N 50°51' E 001°10'1413.6
2015-Jul-30 15:33N 51°00' E 001°25'1212.3
2015-Jul-30 14:34N 51°10' E 001°37'1111.1
2015-Jul-30 13:34N 51°21' E 001°43'1110.7
2015-Jul-30 12:33N 51°31' E 001°46'1211.7
2015-Jul-30 11:33N 51°43' E 001°45'1212.4
2015-Jul-30 10:33N 51°55' E 001°44'1312.9
2015-Jul-30 09:34N 52°08' E 001°49'1413.7
2015-Jul-30 08:33N 52°21' E 001°54'1414.2
2015-Jul-30 07:33N 52°35' E 002°00'1313.0
2015-Jul-30 06:33N 52°47' E 001°56'1414.3
2015-Jul-30 05:33N 52°56' E 001°37'1413.7
2015-Jul-30 04:33N 53°07' E 001°24'1313.2
2015-Jul-30 03:34N 53°19' E 001°13'2311.7
2015-Jul-30 01:33N 53°31' E 000°39'1212.1
2015-Jul-30 00:33N 53°33' E 000°19'10 9.7
2015-Jul-29 23:33N 53°36' E 000°03'8 8.0
2015-Jul-29 22:33N 53°38' W 000°10'0 0.0
2015-Jul-29 21:32N 53°38' W 000°10'0 0.0
2015-Jul-29 20:32N 53°38' W 000°10'0 0.0
2015-Jul-29 19:32N 53°38' W 000°10'0 0.0
2015-Jul-29 18:32N 53°38' W 000°10'0 0.0
2015-Jul-29 17:32N 53°38' W 000°10'0 0.0
2015-Jul-29 16:32N 53°38' W 000°10'0 0.0
2015-Jul-29 15:32N 53°38' W 000°10'0 0.0
2015-Jul-29 14:32N 53°38' W 000°10'0 0.0
2015-Jul-29 13:32N 53°38' W 000°10'0 0.0
2015-Jul-29 12:32N 53°38' W 000°10'0 0.0
2015-Jul-29 11:29N 53°38' W 000°10'0 0.0
2015-Jul-29 10:32N 53°38' W 000°10'0 0.0
2015-Jul-29 09:32N 53°38' W 000°10'0 0.0
2015-Jul-29 08:32N 53°38' W 000°10'0 0.0
2015-Jul-29 07:32N 53°38' W 000°10'0 0.0
2015-Jul-29 06:32N 53°38' W 000°10'0 0.0
2015-Jul-29 05:32N 53°38' W 000°10'0 0.0
2015-Jul-29 04:32N 53°38' W 000°10'0 0.0
2015-Jul-29 03:29N 53°38' W 000°10'0 0.0
2015-Jul-29 02:32N 53°38' W 000°10'0 0.0
2015-Jul-29 01:32N 53°38' W 000°10'0 0.0
2015-Jul-29 00:32N 53°38' W 000°10'0 0.0
2015-Jul-28 23:32N 53°38' W 000°10'0 0.0
2015-Jul-28 22:32N 53°38' W 000°10'0 0.2
2015-Jul-28 21:32N 53°38' W 000°10'0 0.0
2015-Jul-28 20:32N 53°38' W 000°10'0 0.0
2015-Jul-28 19:32N 53°38' W 000°10'0 0.0
2015-Jul-28 18:32N 53°38' W 000°10'0 0.0
2015-Jul-28 17:32N 53°38' W 000°10'0 0.0
2015-Jul-28 16:32N 53°38' W 000°10'0 0.0
2015-Jul-28 15:32N 53°38' W 000°10'0 0.0
2015-Jul-28 14:32N 53°38' W 000°10'0 0.0
2015-Jul-28 13:31N 53°38' W 000°10'0 0.0
2015-Jul-28 12:31N 53°38' W 000°10'0 0.0
2015-Jul-28 11:31N 53°38' W 000°10'0 0.0
2015-Jul-28 10:28N 53°38' W 000°10'0 0.0
2015-Jul-28 09:31N 53°38' W 000°10'0 0.0
2015-Jul-28 08:31N 53°38' W 000°10'0 0.0
2015-Jul-28 07:31N 53°38' W 000°10'0 0.0
2015-Jul-28 06:31N 53°38' W 000°10'0 0.0
2015-Jul-28 05:28N 53°38' W 000°10'0 0.0
2015-Jul-28 04:31N 53°38' W 000°10'0 0.0
2015-Jul-28 03:31N 53°38' W 000°10'0 0.0
2015-Jul-28 02:31N 53°38' W 000°10'0 0.0
2015-Jul-28 01:31N 53°38' W 000°09'0 0.0
2015-Jul-28 00:31N 53°38' W 000°10'0 0.0
2015-Jul-27 23:31N 53°38' W 000°10'0 0.0
2015-Jul-27 22:31N 53°38' W 000°09'0 0.0
2015-Jul-27 21:31N 53°38' W 000°09'0 0.0
2015-Jul-27 20:31N 53°38' W 000°10'0 0.0
2015-Jul-27 19:31N 53°38' W 000°10'0 0.0
2015-Jul-27 18:31N 53°38' W 000°09'0 0.0
2015-Jul-27 17:31N 53°38' W 000°10'0 0.0
2015-Jul-27 16:31N 53°38' W 000°10'0 0.0
2015-Jul-27 15:33N 53°38' W 000°10'1 1.1
2015-Jul-27 14:33N 53°37' W 000°08'9 9.4
2015-Jul-27 13:33N 53°34' E 000°07'8 8.1
2015-Jul-27 12:33N 53°37' E 000°20'4 4.2
2015-Jul-27 11:31N 53°36' E 000°27'0 0.1
2015-Jul-27 10:22N 53°36' E 000°27'0 0.0
2015-Jul-27 09:30N 53°36' E 000°27'0 0.1
2015-Jul-27 08:19N 53°37' E 000°27'0 0.0
2015-Jul-27 07:31N 53°37' E 000°27'0 0.0
2015-Jul-27 06:31N 53°37' E 000°27'0 0.0
2015-Jul-27 05:28N 53°37' E 000°27'0 0.0
2015-Jul-27 04:19N 53°37' E 000°27'0 0.1
2015-Jul-27 03:31N 53°36' E 000°27'0 0.0
2015-Jul-27 02:31N 53°36' E 000°27'0 0.0
2015-Jul-27 01:31N 53°36' E 000°27'0 0.0
2015-Jul-27 00:34N 53°36' E 000°27'0 0.0
2015-Jul-26 23:30N 53°36' E 000°27'0 0.0
2015-Jul-26 22:33N 53°36' E 000°27'0 0.2
2015-Jul-26 21:33N 53°37' E 000°27'0 0.1
2015-Jul-26 20:24N 53°37' E 000°27'0 0.0
2015-Jul-26 19:33N 53°37' E 000°27'0 0.0
2015-Jul-26 18:33N 53°37' E 000°27'0 0.0
2015-Jul-26 17:21N 53°37' E 000°27'0 0.0
2015-Jul-26 16:33N 53°37' E 000°27'0 0.1
2015-Jul-26 15:24N 53°37' E 000°27'0 0.1
2015-Jul-26 14:27N 53°36' E 000°27'0 0.1
2015-Jul-26 13:21N 53°36' E 000°27'0 0.0
2015-Jul-26 12:24N 53°36' E 000°27'0 0.0
2015-Jul-26 11:24N 53°36' E 000°27'0 0.0
2015-Jul-26 10:12N 53°36' E 000°27'1 2.2
2015-Jul-26 09:33N 53°35' E 000°27'1111.2
2015-Jul-26 08:33N 53°24' E 000°34'1312.2
2015-Jul-26 07:29N 53°13' E 000°46'1212.4
2015-Jul-26 06:32N 53°06' E 001°01'1211.9
2015-Jul-26 05:33N 53°02' E 001°19'1111.4
2015-Jul-26 04:33N 52°56' E 001°35'1110.6
2015-Jul-26 03:33N 52°50' E 001°49'10 9.4
2015-Jul-26 02:32N 52°43' E 002°01'1010.0
2015-Jul-26 01:33N 52°33' E 002°01'1111.3
2015-Jul-26 00:33N 52°22' E 001°57'1212.1
2015-Jul-25 23:33N 52°10' E 001°53'1312.8
2015-Jul-25 22:34N 51°58' E 001°49'1312.7
2015-Jul-25 21:33N 51°45' E 001°49'1212.4
2015-Jul-25 20:33N 51°33' E 001°48'1212.3
2015-Jul-25 19:33N 51°21' E 001°43'1111.4
2015-Jul-25 18:33N 51°10' E 001°39'1110.8
2015-Jul-25 17:33N 51°00' E 001°31'1111.3
2015-Jul-25 16:33N 50°50' E 001°23'8311.5
2015-Jul-25 09:20N 49°46' W 000°00'810.3
2015-Jul-25 08:33N 49°38' W 000°03'10 9.9
2015-Jul-25 07:33N 49°29' E 000°05'4 3.9
2015-Jul-25 06:33N 49°29' E 000°11'0 0.4
2015-Jul-25 05:33N 49°29' E 000°11'0 0.0
2015-Jul-25 04:33N 49°29' E 000°11'0 0.0
2015-Jul-25 03:33N 49°29' E 000°11'0 0.0
2015-Jul-25 02:33N 49°29' E 000°11'0 0.0
2015-Jul-25 01:33N 49°29' E 000°11'0 0.0
2015-Jul-25 00:33N 49°29' E 000°11'0 0.0
2015-Jul-24 23:33N 49°29' E 000°11'0 0.0
2015-Jul-24 22:33N 49°29' E 000°11'0 0.0
2015-Jul-24 21:33N 49°29' E 000°11'0 0.0
2015-Jul-24 20:33N 49°29' E 000°11'0 0.0
2015-Jul-24 19:33N 49°29' E 000°11'0 0.0
2015-Jul-24 18:33N 49°29' E 000°11'0 0.0
2015-Jul-24 17:33N 49°29' E 000°11'0 0.0
2015-Jul-24 16:33N 49°29' E 000°11'0 0.0
2015-Jul-24 15:32N 49°29' E 000°11'0 0.0
2015-Jul-24 14:32N 49°29' E 000°11'0 0.0
2015-Jul-24 13:32N 49°29' E 000°11'0 0.0
2015-Jul-24 12:32N 49°29' E 000°11'0 0.0
2015-Jul-24 11:32N 49°29' E 000°11'0 0.0
2015-Jul-24 10:32N 49°29' E 000°11'0 0.0
2015-Jul-24 09:32N 49°29' E 000°11'0 0.0
2015-Jul-24 08:32N 49°29' E 000°11'0 0.0
2015-Jul-24 07:32N 49°29' E 000°11'0 0.0
2015-Jul-24 06:32N 49°29' E 000°11'0 0.0
2015-Jul-24 05:32N 49°29' E 000°11'0 0.0
2015-Jul-24 04:32N 49°29' E 000°11'1 0.6
2015-Jul-24 03:33N 49°29' E 000°10'3 3.1
2015-Jul-24 02:33N 49°29' E 000°06'6 5.6
2015-Jul-24 01:33N 49°29' W 000°03'0 0.0
2015-Jul-24 00:33N 49°29' W 000°03'0 0.1
2015-Jul-23 23:33N 49°29' W 000°03'0 0.1
2015-Jul-23 22:33N 49°29' W 000°03'0 0.0
2015-Jul-23 21:33N 49°29' W 000°03'0 0.0
2015-Jul-23 20:33N 49°29' W 000°03'0 0.0
2015-Jul-23 19:33N 49°29' W 000°03'0 0.0
2015-Jul-23 18:33N 49°29' W 000°03'0 0.0
2015-Jul-23 17:33N 49°29' W 000°03'0 0.0
2015-Jul-23 16:33N 49°29' W 000°03'0 0.1
2015-Jul-23 15:33N 49°29' W 000°03'0 0.1
2015-Jul-23 14:33N 49°29' W 000°03'0 0.0
2015-Jul-23 13:33N 49°29' W 000°03'0 0.0
2015-Jul-23 12:33N 49°29' W 000°03'0 0.0
2015-Jul-23 11:33N 49°29' W 000°03'0 0.0
2015-Jul-23 10:34N 49°29' W 000°03'0 0.1
2015-Jul-23 09:33N 49°29' W 000°03'0 0.0
2015-Jul-23 08:34N 49°29' W 000°03'0 0.0
2015-Jul-23 07:33N 49°29' W 000°03'0 0.0
2015-Jul-23 06:33N 49°29' W 000°03'0 0.0
2015-Jul-23 05:33N 49°29' W 000°03'0 0.0
2015-Jul-23 04:33N 49°29' W 000°03'0 0.0
2015-Jul-23 03:33N 49°29' W 000°03'0 0.0
2015-Jul-23 02:33N 49°29' W 000°03'0 0.0
2015-Jul-23 01:33N 49°29' W 000°03'0 0.0
2015-Jul-23 00:33N 49°29' W 000°03'0 0.0
2015-Jul-22 23:33N 49°29' W 000°03'0 0.0
2015-Jul-22 22:33N 49°29' W 000°03'0 0.0
2015-Jul-22 21:33N 49°29' W 000°03'0 0.0
2015-Jul-22 20:33N 49°29' W 000°03'0 0.1
2015-Jul-22 19:33N 49°29' W 000°03'0 0.0
2015-Jul-22 18:33N 49°29' W 000°03'0 0.0
2015-Jul-22 17:34N 49°29' W 000°03'0 0.1
2015-Jul-22 16:33N 49°29' W 000°03'0 0.0
2015-Jul-22 15:34N 49°29' W 000°03'0 0.0
2015-Jul-22 14:33N 49°29' W 000°03'0 0.0
2015-Jul-22 13:33N 49°29' W 000°03'0 0.0
2015-Jul-22 12:33N 49°29' W 000°03'0 0.0
2015-Jul-22 11:33N 49°29' W 000°03'0 0.1
2015-Jul-22 10:33N 49°29' W 000°03'1 0.6
2015-Jul-22 09:33N 49°30' W 000°04'1313.0
2015-Jul-22 08:33N 49°43' W 000°03'5513.5
2015-Jul-22 04:28N 50°31' E 000°39'1111.6
2015-Jul-22 03:33N 50°40' E 000°46'1212.2
2015-Jul-22 02:33N 50°49' E 001°00'1211.8
2015-Jul-22 01:33N 50°57' E 001°14'1312.6
2015-Jul-22 00:33N 51°05' E 001°29'1514.7
2015-Jul-21 23:33N 51°15' E 001°47'1413.8
2015-Jul-21 22:34N 51°24' E 002°03'1313.1
2015-Jul-21 21:33N 51°22' E 002°23'1313.3
2015-Jul-21 20:33N 51°23' E 002°44'1211.9
2015-Jul-21 19:33N 51°24' E 003°03'1313.1
2015-Jul-21 18:33N 51°25' E 003°25'1010.1
2015-Jul-21 17:33N 51°26' E 003°40'10 9.7
2015-Jul-21 16:33N 51°22' E 003°54'  
Track history (hours):
 
Tides and Currents Weather Stations Pressure Air Temp Water Temp Dewpoint Dewpoint Depression Visibility Wind Speed Wind Dir Waves Ship Positions

Chantaco

Last reported at 2015-Jul-31 16:31 UTC. Time now 2015-Jul-31 17:27 UTC.
Position N 49°30' W 000°05'.

Length 143 m; draft 7.6 m.

Type: Tanker. MMSI: 228330700.

Date/timePositionNaut miles runAvg speedWind from/ knotsBaromVisibWave heightAir tempDewpointWater temp
2015-Jul-31 16:31N 49°30' W 000°05'0 0.0
2015-Jul-31 15:31N 49°30' W 000°05'0 0.0
2015-Jul-31 14:31N 49°30' W 000°05'0 0.0
2015-Jul-31 13:31N 49°30' W 000°05'0 0.0
2015-Jul-31 12:31N 49°30' W 000°05'0 0.1
2015-Jul-31 11:31N 49°30' W 000°05'0 0.0
2015-Jul-31 10:31N 49°30' W 000°04'0 0.0
2015-Jul-31 09:31N 49°30' W 000°04'0 0.0
2015-Jul-31 08:31N 49°30' W 000°04'0 0.0
2015-Jul-31 07:31N 49°30' W 000°05'0 0.1
2015-Jul-31 06:31N 49°30' W 000°05'0 0.1
2015-Jul-31 05:31N 49°30' W 000°05'0 0.1
2015-Jul-31 04:31N 49°30' W 000°05'0 0.0
2015-Jul-31 03:31N 49°30' W 000°05'0 0.0
2015-Jul-31 02:31N 49°30' W 000°05'0 0.0
2015-Jul-31 01:31N 49°30' W 000°05'6 6.5
2015-Jul-31 00:33N 49°36' W 000°05'1212.2
2015-Jul-30 23:33N 49°47' E 000°01'5310.6
2015-Jul-30 18:31N 50°35' E 000°39'1212.3
2015-Jul-30 17:33N 50°42' E 000°53'1313.4
2015-Jul-30 16:33N 50°51' E 001°10'1413.6
2015-Jul-30 15:33N 51°00' E 001°25'1212.3
2015-Jul-30 14:34N 51°10' E 001°37'1111.1
2015-Jul-30 13:34N 51°21' E 001°43'1110.7
2015-Jul-30 12:33N 51°31' E 001°46'1211.7
2015-Jul-30 11:33N 51°43' E 001°45'1212.4
2015-Jul-30 10:33N 51°55' E 001°44'1312.9
2015-Jul-30 09:34N 52°08' E 001°49'1413.7
2015-Jul-30 08:33N 52°21' E 001°54'1414.2
2015-Jul-30 07:33N 52°35' E 002°00'1313.0
2015-Jul-30 06:33N 52°47' E 001°56'1414.3
2015-Jul-30 05:33N 52°56' E 001°37'1413.7
2015-Jul-30 04:33N 53°07' E 001°24'1313.2
2015-Jul-30 03:34N 53°19' E 001°13'2311.7
2015-Jul-30 01:33N 53°31' E 000°39'1212.1
2015-Jul-30 00:33N 53°33' E 000°19'10 9.7
2015-Jul-29 23:33N 53°36' E 000°03'8 8.0
2015-Jul-29 22:33N 53°38' W 000°10'0 0.0
2015-Jul-29 21:32N 53°38' W 000°10'0 0.0
2015-Jul-29 20:32N 53°38' W 000°10'0 0.0
2015-Jul-29 19:32N 53°38' W 000°10'0 0.0
2015-Jul-29 18:32N 53°38' W 000°10'0 0.0
2015-Jul-29 17:32N 53°38' W 000°10'0 0.0
2015-Jul-29 16:32N 53°38' W 000°10'0 0.0
2015-Jul-29 15:32N 53°38' W 000°10'0 0.0
2015-Jul-29 14:32N 53°38' W 000°10'0 0.0
2015-Jul-29 13:32N 53°38' W 000°10'0 0.0
2015-Jul-29 12:32N 53°38' W 000°10'0 0.0
2015-Jul-29 11:29N 53°38' W 000°10'0 0.0
2015-Jul-29 10:32N 53°38' W 000°10'0 0.0
2015-Jul-29 09:32N 53°38' W 000°10'0 0.0
2015-Jul-29 08:32N 53°38' W 000°10'0 0.0
2015-Jul-29 07:32N 53°38' W 000°10'0 0.0
2015-Jul-29 06:32N 53°38' W 000°10'0 0.0
2015-Jul-29 05:32N 53°38' W 000°10'0 0.0
2015-Jul-29 04:32N 53°38' W 000°10'0 0.0
2015-Jul-29 03:29N 53°38' W 000°10'0 0.0
2015-Jul-29 02:32N 53°38' W 000°10'0 0.0
2015-Jul-29 01:32N 53°38' W 000°10'0 0.0
2015-Jul-29 00:32N 53°38' W 000°10'0 0.0
2015-Jul-28 23:32N 53°38' W 000°10'0 0.0
2015-Jul-28 22:32N 53°38' W 000°10'0 0.2
2015-Jul-28 21:32N 53°38' W 000°10'0 0.0
2015-Jul-28 20:32N 53°38' W 000°10'0 0.0
2015-Jul-28 19:32N 53°38' W 000°10'0 0.0
2015-Jul-28 18:32N 53°38' W 000°10'0 0.0
2015-Jul-28 17:32N 53°38' W 000°10'0 0.0
2015-Jul-28 16:32N 53°38' W 000°10'0 0.0
2015-Jul-28 15:32N 53°38' W 000°10'0 0.0
2015-Jul-28 14:32N 53°38' W 000°10'0 0.0
2015-Jul-28 13:31N 53°38' W 000°10'0 0.0
2015-Jul-28 12:31N 53°38' W 000°10'0 0.0
2015-Jul-28 11:31N 53°38' W 000°10'0 0.0
2015-Jul-28 10:28N 53°38' W 000°10'0 0.0
2015-Jul-28 09:31N 53°38' W 000°10'0 0.0
2015-Jul-28 08:31N 53°38' W 000°10'0 0.0
2015-Jul-28 07:31N 53°38' W 000°10'0 0.0
2015-Jul-28 06:31N 53°38' W 000°10'0 0.0
2015-Jul-28 05:28N 53°38' W 000°10'0 0.0
2015-Jul-28 04:31N 53°38' W 000°10'0 0.0
2015-Jul-28 03:31N 53°38' W 000°10'0 0.0
2015-Jul-28 02:31N 53°38' W 000°10'0 0.0
2015-Jul-28 01:31N 53°38' W 000°09'0 0.0
2015-Jul-28 00:31N 53°38' W 000°10'0 0.0
2015-Jul-27 23:31N 53°38' W 000°10'0 0.0
2015-Jul-27 22:31N 53°38' W 000°09'0 0.0
2015-Jul-27 21:31N 53°38' W 000°09'0 0.0
2015-Jul-27 20:31N 53°38' W 000°10'0 0.0
2015-Jul-27 19:31N 53°38' W 000°10'0 0.0
2015-Jul-27 18:31N 53°38' W 000°09'0 0.0
2015-Jul-27 17:31N 53°38' W 000°10'0 0.0
2015-Jul-27 16:31N 53°38' W 000°10'0 0.0
2015-Jul-27 15:33N 53°38' W 000°10'1 1.1
2015-Jul-27 14:33N 53°37' W 000°08'9 9.4
2015-Jul-27 13:33N 53°34' E 000°07'8 8.1
2015-Jul-27 12:33N 53°37' E 000°20'4 4.2
2015-Jul-27 11:31N 53°36' E 000°27'0 0.1
2015-Jul-27 10:22N 53°36' E 000°27'0 0.0
2015-Jul-27 09:30N 53°36' E 000°27'0 0.1
2015-Jul-27 08:19N 53°37' E 000°27'0 0.0
2015-Jul-27 07:31N 53°37' E 000°27'0 0.0
2015-Jul-27 06:31N 53°37' E 000°27'0 0.0
2015-Jul-27 05:28N 53°37' E 000°27'0 0.0
2015-Jul-27 04:19N 53°37' E 000°27'0 0.1
2015-Jul-27 03:31N 53°36' E 000°27'0 0.0
2015-Jul-27 02:31N 53°36' E 000°27'0 0.0
2015-Jul-27 01:31N 53°36' E 000°27'0 0.0
2015-Jul-27 00:34N 53°36' E 000°27'0 0.0
2015-Jul-26 23:30N 53°36' E 000°27'0 0.0
2015-Jul-26 22:33N 53°36' E 000°27'0 0.2
2015-Jul-26 21:33N 53°37' E 000°27'0 0.1
2015-Jul-26 20:24N 53°37' E 000°27'0 0.0
2015-Jul-26 19:33N 53°37' E 000°27'0 0.0
2015-Jul-26 18:33N 53°37' E 000°27'0 0.0
2015-Jul-26 17:21N 53°37' E 000°27'0 0.0
2015-Jul-26 16:33N 53°37' E 000°27'0 0.1
2015-Jul-26 15:24N 53°37' E 000°27'0 0.1
2015-Jul-26 14:27N 53°36' E 000°27'0 0.1
2015-Jul-26 13:21N 53°36' E 000°27'0 0.0
2015-Jul-26 12:24N 53°36' E 000°27'0 0.0
2015-Jul-26 11:24N 53°36' E 000°27'0 0.0
2015-Jul-26 10:12N 53°36' E 000°27'1 2.2
2015-Jul-26 09:33N 53°35' E 000°27'1111.2
2015-Jul-26 08:33N 53°24' E 000°34'1312.2
2015-Jul-26 07:29N 53°13' E 000°46'1212.4
2015-Jul-26 06:32N 53°06' E 001°01'1211.9
2015-Jul-26 05:33N 53°02' E 001°19'1111.4
2015-Jul-26 04:33N 52°56' E 001°35'1110.6
2015-Jul-26 03:33N 52°50' E 001°49'10 9.4
2015-Jul-26 02:32N 52°43' E 002°01'1010.0
2015-Jul-26 01:33N 52°33' E 002°01'1111.3
2015-Jul-26 00:33N 52°22' E 001°57'1212.1
2015-Jul-25 23:33N 52°10' E 001°53'1312.8
2015-Jul-25 22:34N 51°58' E 001°49'1312.7
2015-Jul-25 21:33N 51°45' E 001°49'1212.4
2015-Jul-25 20:33N 51°33' E 001°48'1212.3
2015-Jul-25 19:33N 51°21' E 001°43'1111.4
2015-Jul-25 18:33N 51°10' E 001°39'1110.8
2015-Jul-25 17:33N 51°00' E 001°31'1111.3
2015-Jul-25 16:33N 50°50' E 001°23'8311.5
2015-Jul-25 09:20N 49°46' W 000°00'810.3
2015-Jul-25 08:33N 49°38' W 000°03'10 9.9
2015-Jul-25 07:33N 49°29' E 000°05'4 3.9
2015-Jul-25 06:33N 49°29' E 000°11'0 0.4
2015-Jul-25 05:33N 49°29' E 000°11'0 0.0
2015-Jul-25 04:33N 49°29' E 000°11'0 0.0
2015-Jul-25 03:33N 49°29' E 000°11'0 0.0
2015-Jul-25 02:33N 49°29' E 000°11'0 0.0
2015-Jul-25 01:33N 49°29' E 000°11'0 0.0
2015-Jul-25 00:33N 49°29' E 000°11'0 0.0
2015-Jul-24 23:33N 49°29' E 000°11'0 0.0
2015-Jul-24 22:33N 49°29' E 000°11'0 0.0
2015-Jul-24 21:33N 49°29' E 000°11'0 0.0
2015-Jul-24 20:33N 49°29' E 000°11'0 0.0
2015-Jul-24 19:33N 49°29' E 000°11'0 0.0
2015-Jul-24 18:33N 49°29' E 000°11'0 0.0
2015-Jul-24 17:33N 49°29' E 000°11'0 0.0
2015-Jul-24 16:33N 49°29' E 000°11'0 0.0
2015-Jul-24 15:32N 49°29' E 000°11'0 0.0
2015-Jul-24 14:32N 49°29' E 000°11'0 0.0
2015-Jul-24 13:32N 49°29' E 000°11'0 0.0
2015-Jul-24 12:32N 49°29' E 000°11'0 0.0
2015-Jul-24 11:32N 49°29' E 000°11'0 0.0
2015-Jul-24 10:32N 49°29' E 000°11'0 0.0
2015-Jul-24 09:32N 49°29' E 000°11'0 0.0
2015-Jul-24 08:32N 49°29' E 000°11'0 0.0
2015-Jul-24 07:32N 49°29' E 000°11'0 0.0
2015-Jul-24 06:32N 49°29' E 000°11'0 0.0
2015-Jul-24 05:32N 49°29' E 000°11'0 0.0
2015-Jul-24 04:32N 49°29' E 000°11'1 0.6
2015-Jul-24 03:33N 49°29' E 000°10'3 3.1
2015-Jul-24 02:33N 49°29' E 000°06'6 5.6
2015-Jul-24 01:33N 49°29' W 000°03'0 0.0
2015-Jul-24 00:33N 49°29' W 000°03'0 0.1
2015-Jul-23 23:33N 49°29' W 000°03'0 0.1
2015-Jul-23 22:33N 49°29' W 000°03'0 0.0
2015-Jul-23 21:33N 49°29' W 000°03'0 0.0
2015-Jul-23 20:33N 49°29' W 000°03'0 0.0
2015-Jul-23 19:33N 49°29' W 000°03'0 0.0
2015-Jul-23 18:33N 49°29' W 000°03'0 0.0
2015-Jul-23 17:33N 49°29' W 000°03'0 0.0
2015-Jul-23 16:33N 49°29' W 000°03'0 0.1
2015-Jul-23 15:33N 49°29' W 000°03'0 0.1
2015-Jul-23 14:33N 49°29' W 000°03'0 0.0
2015-Jul-23 13:33N 49°29' W 000°03'0 0.0
2015-Jul-23 12:33N 49°29' W 000°03'0 0.0
2015-Jul-23 11:33N 49°29' W 000°03'0 0.0
2015-Jul-23 10:34N 49°29' W 000°03'0 0.1
2015-Jul-23 09:33N 49°29' W 000°03'0 0.0
2015-Jul-23 08:34N 49°29' W 000°03'0 0.0
2015-Jul-23 07:33N 49°29' W 000°03'0 0.0
2015-Jul-23 06:33N 49°29' W 000°03'0 0.0
2015-Jul-23 05:33N 49°29' W 000°03'0 0.0
2015-Jul-23 04:33N 49°29' W 000°03'0 0.0
2015-Jul-23 03:33N 49°29' W 000°03'0 0.0
2015-Jul-23 02:33N 49°29' W 000°03'0 0.0
2015-Jul-23 01:33N 49°29' W 000°03'0 0.0
2015-Jul-23 00:33N 49°29' W 000°03'0 0.0
2015-Jul-22 23:33N 49°29' W 000°03'0 0.0
2015-Jul-22 22:33N 49°29' W 000°03'0 0.0
2015-Jul-22 21:33N 49°29' W 000°03'0 0.0
2015-Jul-22 20:33N 49°29' W 000°03'0 0.1
2015-Jul-22 19:33N 49°29' W 000°03'0 0.0
2015-Jul-22 18:33N 49°29' W 000°03'0 0.0
2015-Jul-22 17:34N 49°29' W 000°03'0 0.1
2015-Jul-22 16:33N 49°29' W 000°03'0 0.0
2015-Jul-22 15:34N 49°29' W 000°03'0 0.0
2015-Jul-22 14:33N 49°29' W 000°03'0 0.0
2015-Jul-22 13:33N 49°29' W 000°03'0 0.0
2015-Jul-22 12:33N 49°29' W 000°03'0 0.0
2015-Jul-22 11:33N 49°29' W 000°03'0 0.1
2015-Jul-22 10:33N 49°29' W 000°03'1 0.6
2015-Jul-22 09:33N 49°30' W 000°04'1313.0
2015-Jul-22 08:33N 49°43' W 000°03'5513.5
2015-Jul-22 04:28N 50°31' E 000°39'1111.6
2015-Jul-22 03:33N 50°40' E 000°46'1212.2
2015-Jul-22 02:33N 50°49' E 001°00'1211.8
2015-Jul-22 01:33N 50°57' E 001°14'1312.6
2015-Jul-22 00:33N 51°05' E 001°29'1514.7
2015-Jul-21 23:33N 51°15' E 001°47'1413.8
2015-Jul-21 22:34N 51°24' E 002°03'1313.1
2015-Jul-21 21:33N 51°22' E 002°23'1313.3
2015-Jul-21 20:33N 51°23' E 002°44'1211.9
2015-Jul-21 19:33N 51°24' E 003°03'1313.1
2015-Jul-21 18:33N 51°25' E 003°25'1010.1
2015-Jul-21 17:33N 51°26' E 003°40'10 9.7
2015-Jul-21 16:33N 51°22' E 003°54'  

Dump ship's entire track history